Tholen, Netherlands
Current Conditions -  °F | °C
As of 2:25 PM on Saturday 25 Oct 2014 (Local Time) from EHWO Reporting Station
Overcast Overcast  
Wind Chill: 59°   Ceiling: 2600
Heat Index: 59°   Visibility: 6mi
Dew Point: 52°   Wind: 15mph
Humidity: 77%   Direction: 260°W
Pressure: 30.06"   Gusts: NA
Location:  51.53°N, 4.22°E
Report Text: EHWO 251225Z AUTO 26013KT 9999 FEW019 BKN026 OVC032 15/11 Q1018 BLU
Loading
Personal Weather Stations






























Interactive Weather Map
Tropical Storm Tracking
New forecast layout! Learn more

10-Day Weather Forecast

Advertisements
Track Severe Weather on mobile